Elk Creek, New York
Current Conditions -  °F | °C
As of 3:55 AM on Sunday 23 Nov 2014 (Local Time) from KNY0 Reporting Station
Overcast Overcast  
Wind Chill: 32°   Ceiling: 2600
Heat Index: 37°   Visibility: 7mi
Dew Point: 35°   Wind: 6mph
Humidity: 93%   Direction: 230°SW
Pressure: 30.05"   Gusts: NA
Location:  42.6052°N, 74.8141°W
Report Text: KNY0 230855Z AUTO 23005KT 7SM OVC026 03/02 A3005 RMK AO2 60004 T00250015
Loading
Personal Weather Stations






























Interactive Weather Map New forecast layout! Learn more

10-Day Weather Forecast

Advertisements
Track Severe Weather on mobile